Antonio Joao, Brazil
Current Conditions -  °F | °C
As of 8:00 PM on Friday 24 Oct 2014 (Local Time) from SBCG Reporting Station
Broken Clouds Broken Clouds  
Wind Chill: 70°   Ceiling: 10000
Heat Index: 70°   Visibility: 6mi
Dew Point: 66°   Wind: 1mph
Humidity: 88%   Direction: NA
Pressure: 29.94"   Gusts: NA
Location:  22.19°S, 55.95°W
Report Text: SBCG 242300Z VRB01KT 9999 SCT007 SCT040 BKN100 21/19 Q1014
Loading
Personal Weather Stations






























Interactive Weather Map
Tropical Storm Tracking
New forecast layout! Learn more

10-Day Weather Forecast

Advertisements
Track Severe Weather on mobile